Time;durP1;ratioP1;P1;durP2;ratioP2;P2;SDS_P1;SDS_P2;PMS_P1;PMS_P2;Temp;Humidity;BMP_temperature;BMP_pressure;BME280_temperature;BME280_humidity;BME280_pressure;Samples;Min_cycle;Max_cycle;Signal;HPM_P1;HPM_P2
2021/09/16 00:00:29;;;;;;;6.28;0.52;;;14.50;99.90;;;;;;5032127;28;20176;-62
2021/09/16 00:02:55;;;;;;;1.33;0.40;;;14.50;99.90;;;;;;5032831;28;20374;-62
2021/09/16 00:05:21;;;;;;;3.05;0.60;;;14.50;99.90;;;;;;5032661;28;20044;-62
2021/09/16 00:07:46;;;;;;;1.83;0.70;;;14.50;99.90;;;;;;5032220;28;20475;-62
2021/09/16 00:10:14;;;;;;;2.05;0.35;;;14.50;99.90;;;;;;5031199;28;20040;-64
2021/09/16 00:12:39;;;;;;;1.95;0.60;;;14.50;99.90;;;;;;5032615;28;20481;-64
2021/09/16 00:15:07;;;;;;;3.35;0.90;;;14.60;99.90;;;;;;5032674;28;20033;-64
2021/09/16 00:17:33;;;;;;;3.08;0.25;;;14.70;99.90;;;;;;5030832;28;20030;-63
2021/09/16 00:19:58;;;;;;;2.08;0.45;;;14.70;99.90;;;;;;5032351;28;20390;-63
2021/09/16 00:22:24;;;;;;;1.95;0.63;;;14.80;99.90;;;;;;5032300;28;20088;-62
2021/09/16 00:24:49;;;;;;;3.10;0.65;;;14.80;99.90;;;;;;5032251;28;20025;-62
2021/09/16 00:27:15;;;;;;;4.68;0.30;;;14.80;99.90;;;;;;5032380;28;20040;-63
2021/09/16 00:29:40;;;;;;;5.28;0.40;;;14.70;99.90;;;;;;5031605;28;20072;-62
2021/09/16 00:32:06;;;;;;;0.80;0.25;;;14.70;99.90;;;;;;5032341;28;20056;-62
2021/09/16 00:34:32;;;;;;;1.73;0.20;;;14.60;99.90;;;;;;5031961;28;20072;-64
2021/09/16 00:36:58;;;;;;;1.55;0.10;;;14.60;99.90;;;;;;5030844;28;20057;-62
2021/09/16 00:39:23;;;;;;;1.58;0.25;;;14.60;99.90;;;;;;5031836;28;20045;-62
2021/09/16 00:41:49;;;;;;;6.03;0.77;;;14.60;99.90;;;;;;5031935;28;20525;-62
2021/09/16 00:44:14;;;;;;;1.17;0.30;;;14.60;99.90;;;;;;5032481;28;20137;-64
2021/09/16 00:46:40;;;;;;;1.42;0.40;;;14.60;99.90;;;;;;5031570;28;20030;-62
2021/09/16 00:49:06;;;;;;;6.45;0.40;;;14.60;99.90;;;;;;5032153;28;20041;-63
2021/09/16 00:51:33;;;;;;;2.10;0.30;;;14.60;99.90;;;;;;5030308;28;20672;-65
2021/09/16 00:54:01;;;;;;;2.58;0.52;;;14.70;99.90;;;;;;5032144;28;20176;-63
2021/09/16 00:56:29;;;;;;;2.08;0.20;;;14.70;99.90;;;;;;5032095;28;20037;-62
2021/09/16 00:58:57;;;;;;;5.05;0.30;;;14.70;99.90;;;;;;5030796;28;20045;-63
2021/09/16 01:01:23;;;;;;;4.50;0.38;;;14.80;99.90;;;;;;5031614;28;20037;-64
2021/09/16 01:03:48;;;;;;;3.70;0.40;;;14.80;99.90;;;;;;5031255;28;20201;-63
2021/09/16 01:06:16;;;;;;;2.92;0.20;;;14.90;99.90;;;;;;5031612;28;20053;-62
2021/09/16 01:08:42;;;;;;;1.13;0.17;;;14.80;99.90;;;;;;5031173;28;20037;-63
2021/09/16 01:11:08;;;;;;;1.60;0.20;;;14.80;99.90;;;;;;5030957;28;20063;-63
2021/09/16 01:13:34;;;;;;;2.70;0.30;;;14.70;99.90;;;;;;5026523;28;20044;-62
2021/09/16 01:15:59;;;;;;;5.22;0.63;;;14.70;99.90;;;;;;5029781;28;20209;-64
2021/09/16 01:18:26;;;;;;;4.13;0.30;;;14.70;99.90;;;;;;5029193;28;20065;-62
2021/09/16 01:20:53;;;;;;;4.15;0.40;;;14.70;99.90;;;;;;5020890;28;20176;-61
2021/09/16 01:23:19;;;;;;;4.30;0.55;;;14.70;99.90;;;;;;5024202;28;20037;-63
2021/09/16 01:25:44;;;;;;;2.38;0.30;;;14.70;99.90;;;;;;5020795;28;20036;-62
2021/09/16 01:28:10;;;;;;;6.60;1.00;;;14.70;99.90;;;;;;5022430;28;20030;-62
2021/09/16 01:30:35;;;;;;;3.00;0.30;;;14.70;99.90;;;;;;5023343;28;20034;-64
2021/09/16 01:33:01;;;;;;;2.30;0.30;;;14.70;99.90;;;;;;5021825;28;20037;-62
2021/09/16 01:35:28;;;;;;;4.35;0.88;;;14.70;99.90;;;;;;5021437;28;20049;-63
2021/09/16 01:37:54;;;;;;;1.90;0.10;;;14.80;99.90;;;;;;5023343;28;20111;-62
2021/09/16 01:40:20;;;;;;;8.13;0.65;;;14.80;99.90;;;;;;5025439;28;20044;-62
2021/09/16 01:42:47;;;;;;;3.00;0.40;;;14.80;99.90;;;;;;5022569;28;20076;-63
2021/09/16 01:45:17;;;;;;;5.82;0.60;;;14.80;99.90;;;;;;5029413;28;20034;-62
2021/09/16 01:47:44;;;;;;;1.23;0.73;;;14.80;99.90;;;;;;5035340;28;20060;-63
2021/09/16 01:50:14;;;;;;;3.33;0.47;;;14.80;99.90;;;;;;5032954;28;20025;-63
2021/09/16 01:52:40;;;;;;;4.45;0.50;;;14.80;99.90;;;;;;5035498;28;20026;-62
2021/09/16 01:55:06;;;;;;;3.33;0.40;;;14.80;99.90;;;;;;5049318;28;20036;-64
2021/09/16 01:57:32;;;;;;;2.15;0.45;;;14.80;99.90;;;;;;5042793;28;20030;-63
2021/09/16 01:59:58;;;;;;;3.03;0.40;;;14.90;99.90;;;;;;5030753;28;20025;-63
2021/09/16 02:02:23;;;;;;;3.42;0.65;;;14.80;99.90;;;;;;5030497;28;20099;-64
2021/09/16 02:04:49;;;;;;;6.60;0.60;;;14.80;99.90;;;;;;5030902;28;20053;-62
2021/09/16 02:07:15;;;;;;;3.40;0.30;;;14.80;99.90;;;;;;5029335;28;20044;-62
2021/09/16 02:09:40;;;;;;;2.72;0.30;;;14.80;99.90;;;;;;5028767;28;20116;-63
2021/09/16 02:12:06;;;;;;;3.42;0.95;;;14.90;99.90;;;;;;5029344;28;20029;-64
2021/09/16 02:14:32;;;;;;;1.80;0.30;;;14.90;99.90;;;;;;5028581;28;20029;-62
2021/09/16 02:16:57;;;;;;;3.42;0.77;;;14.80;99.90;;;;;;5029164;28;20029;-62
2021/09/16 02:19:23;;;;;;;2.67;0.40;;;14.90;99.90;;;;;;5029559;28;20068;-63
2021/09/16 02:21:49;;;;;;;6.47;0.57;;;14.80;99.90;;;;;;5029598;28;20056;-63
2021/09/16 02:24:14;;;;;;;1.98;0.20;;;14.80;99.90;;;;;;5027718;28;20095;-63
2021/09/16 02:26:40;;;;;;;3.35;0.40;;;14.90;99.90;;;;;;5029580;28;20198;-62
2021/09/16 02:29:05;;;;;;;4.53;0.75;;;14.90;99.90;;;;;;5028645;28;20067;-62
2021/09/16 02:31:31;;;;;;;2.47;0.20;;;14.90;99.90;;;;;;5029284;28;20040;-64
2021/09/16 02:33:57;;;;;;;2.50;0.30;;;14.90;99.90;;;;;;5029330;28;20556;-63
2021/09/16 02:36:23;;;;;;;2.22;0.30;;;14.90;99.90;;;;;;5028872;28;20030;-62
2021/09/16 02:38:48;;;;;;;5.20;0.40;;;14.90;99.90;;;;;;5029292;28;20029;-64
2021/09/16 02:41:14;;;;;;;7.22;0.50;;;14.90;99.90;;;;;;5028756;28;20040;-63
2021/09/16 02:43:39;;;;;;;2.95;0.65;;;14.90;99.90;;;;;;5029287;28;20025;-63
2021/09/16 02:46:05;;;;;;;3.00;0.40;;;14.90;99.90;;;;;;5027079;28;20499;-63
2021/09/16 02:48:30;;;;;;;1.95;0.40;;;14.90;99.90;;;;;;5028767;28;20044;-63
2021/09/16 02:50:56;;;;;;;3.00;0.38;;;14.90;99.90;;;;;;5029040;28;20029;-64
2021/09/16 02:53:22;;;;;;;2.53;0.38;;;14.90;99.90;;;;;;5027967;28;20057;-62
2021/09/16 02:55:48;;;;;;;2.88;0.20;;;14.90;99.90;;;;;;5027970;28;20339;-62
2021/09/16 02:58:13;;;;;;;2.25;0.47;;;14.90;99.90;;;;;;5027869;28;20103;-63
2021/09/16 03:00:39;;;;;;;1.08;0.40;;;14.90;99.90;;;;;;5028477;28;20045;-62
2021/09/16 03:03:06;;;;;;;1.42;0.22;;;14.90;99.90;;;;;;5028509;28;20029;-67
2021/09/16 03:05:32;;;;;;;1.33;0.35;;;14.90;99.90;;;;;;5028888;28;20053;-62
2021/09/16 03:07:57;;;;;;;1.45;0.40;;;14.90;99.90;;;;;;5029000;28;20064;-62
2021/09/16 03:10:23;;;;;;;4.65;0.50;;;14.90;99.90;;;;;;5028397;28;20041;-62
2021/09/16 03:12:49;;;;;;;8.80;0.30;;;15.00;99.90;;;;;;5028626;28;20442;-61
2021/09/16 03:15:14;;;;;;;4.35;0.40;;;15.00;99.90;;;;;;5027095;28;20034;-63
2021/09/16 03:17:40;;;;;;;1.95;0.25;;;15.00;99.90;;;;;;5026833;28;20030;-60
2021/09/16 03:20:07;;;;;;;1.55;0.52;;;15.00;99.90;;;;;;5028988;28;20392;-63
2021/09/16 03:22:32;;;;;;;3.15;0.50;;;15.00;99.90;;;;;;5030816;28;20034;-60
2021/09/16 03:24:58;;;;;;;2.78;0.30;;;15.00;99.90;;;;;;5031538;28;20038;-63
2021/09/16 03:27:24;;;;;;;3.70;0.38;;;14.90;99.90;;;;;;5031968;28;20108;-63
2021/09/16 03:29:49;;;;;;;5.13;0.30;;;14.90;99.90;;;;;;5031826;28;20044;-61
2021/09/16 03:32:15;;;;;;;1.17;0.65;;;14.90;99.90;;;;;;5032073;28;20036;-62
2021/09/16 03:34:41;;;;;;;7.97;0.32;;;14.80;99.90;;;;;;5032758;28;20026;-60
2021/09/16 03:37:08;;;;;;;3.03;0.60;;;14.80;99.90;;;;;;5031089;28;20117;-62
2021/09/16 03:39:34;;;;;;;2.15;0.15;;;14.70;99.90;;;;;;5032053;28;20029;-61
2021/09/16 03:41:59;;;;;;;0.57;0.30;;;14.70;99.90;;;;;;5032480;28;20388;-61
2021/09/16 03:44:25;;;;;;;6.07;0.20;;;14.60;99.90;;;;;;5031827;28;20509;-61
2021/09/16 03:46:53;;;;;;;2.33;0.43;;;14.70;99.90;;;;;;5032497;28;20034;-63
2021/09/16 03:49:19;;;;;;;1.13;0.22;;;14.70;99.90;;;;;;5031529;28;20076;-62
2021/09/16 03:51:44;;;;;;;2.47;0.28;;;14.70;99.90;;;;;;5032318;28;20042;-62
2021/09/16 03:54:10;;;;;;;2.95;0.30;;;14.70;99.90;;;;;;5032341;28;20358;-60
2021/09/16 03:56:35;;;;;;;2.95;0.30;;;14.70;99.90;;;;;;5031563;28;20074;-62
2021/09/16 03:59:01;;;;;;;2.10;0.45;;;14.80;99.90;;;;;;5031480;28;20036;-61
2021/09/16 04:01:27;;;;;;;0.88;0.30;;;14.80;99.90;;;;;;5031735;28;20033;-63
2021/09/16 04:03:52;;;;;;;2.78;0.30;;;14.80;99.90;;;;;;5031814;28;20125;-60
2021/09/16 04:06:18;;;;;;;1.17;0.10;;;14.90;99.90;;;;;;5031611;28;20037;-60
2021/09/16 04:08:43;;;;;;;1.33;0.10;;;14.90;99.90;;;;;;5031184;28;20052;-61
2021/09/16 04:11:09;;;;;;;2.40;0.47;;;15.00;99.90;;;;;;5031843;28;20037;-62
2021/09/16 04:13:35;;;;;;;2.33;0.20;;;15.00;99.90;;;;;;5030911;28;20029;-60
2021/09/16 04:16:00;;;;;;;1.83;0.50;;;15.10;99.90;;;;;;5031636;28;20033;-63
2021/09/16 04:18:26;;;;;;;4.70;0.63;;;15.10;99.90;;;;;;5031113;28;20401;-62
2021/09/16 04:20:51;;;;;;;7.40;0.32;;;15.10;99.90;;;;;;5031815;28;20030;-60
2021/09/16 04:23:17;;;;;;;2.03;0.30;;;15.20;99.90;;;;;;5031835;28;20500;-60
2021/09/16 04:25:42;;;;;;;4.20;0.25;;;15.20;99.90;;;;;;5031160;28;20060;-60
2021/09/16 04:28:08;;;;;;;1.35;0.40;;;15.20;99.90;;;;;;5030849;28;20094;-61
2021/09/16 04:30:34;;;;;;;4.00;0.73;;;15.20;99.90;;;;;;5030403;28;20024;-63
2021/09/16 04:32:59;;;;;;;3.20;0.30;;;15.20;99.90;;;;;;5030701;28;20508;-61
2021/09/16 04:35:25;;;;;;;1.15;0.20;;;15.20;99.90;;;;;;5030929;28;20026;-60
2021/09/16 04:37:50;;;;;;;3.13;0.10;;;15.20;99.90;;;;;;5031371;28;20021;-63
2021/09/16 04:40:16;;;;;;;7.32;0.47;;;15.20;99.90;;;;;;5031116;28;20832;-64
2021/09/16 04:42:42;;;;;;;7.50;0.47;;;15.20;99.90;;;;;;5030444;28;20112;-63
2021/09/16 04:45:08;;;;;;;7.88;0.90;;;15.20;99.90;;;;;;5031402;28;20481;-60
2021/09/16 04:47:33;;;;;;;5.00;0.40;;;15.20;99.90;;;;;;5030373;28;20100;-61
2021/09/16 04:49:59;;;;;;;1.05;0.20;;;15.30;99.90;;;;;;5036314;28;20441;-62
2021/09/16 04:52:25;;;;;;;2.95;0.20;;;15.30;99.90;;;;;;5037543;28;20455;-62
2021/09/16 04:54:51;;;;;;;2.80;0.50;;;15.40;99.90;;;;;;5036107;28;20067;-63
2021/09/16 04:57:17;;;;;;;2.53;0.30;;;15.30;99.90;;;;;;5036076;28;20045;-62
2021/09/16 04:59:43;;;;;;;2.83;0.45;;;15.30;99.90;;;;;;5030498;28;20456;-60
2021/09/16 05:02:08;;;;;;;5.28;0.30;;;15.40;99.90;;;;;;5029091;28;20532;-62
2021/09/16 05:04:34;;;;;;;1.08;0.30;;;15.40;99.90;;;;;;5042137;28;20392;-62
2021/09/16 05:06:59;;;;;;;4.20;0.57;;;15.40;99.90;;;;;;5036930;28;20033;-62
2021/09/16 05:09:25;;;;;;;3.45;0.60;;;15.30;99.90;;;;;;5026455;28;20042;-60
2021/09/16 05:11:51;;;;;;;3.60;0.15;;;15.30;99.90;;;;;;5026251;28;20041;-61
2021/09/16 05:14:17;;;;;;;3.13;0.20;;;15.30;99.90;;;;;;5035464;28;20226;-61
2021/09/16 05:16:43;;;;;;;2.70;0.25;;;15.30;99.90;;;;;;5028098;28;20456;-66
2021/09/16 05:19:09;;;;;;;2.08;0.70;;;15.30;99.90;;;;;;5042622;28;20403;-64
2021/09/16 05:21:34;;;;;;;2.20;0.28;;;15.30;99.90;;;;;;5049025;28;20033;-64
2021/09/16 05:24:00;;;;;;;1.35;0.15;;;15.30;99.90;;;;;;5055615;28;20025;-60
2021/09/16 05:26:26;;;;;;;1.08;0.20;;;15.20;99.90;;;;;;5059793;28;20234;-61
2021/09/16 05:28:51;;;;;;;1.08;0.85;;;15.20;99.90;;;;;;5051134;28;20037;-61
2021/09/16 05:31:17;;;;;;;0.55;0.10;;;15.10;99.90;;;;;;5054719;28;20091;-62
2021/09/16 05:33:43;;;;;;;1.65;0.20;;;15.10;99.90;;;;;;5048335;28;20123;-63
2021/09/16 05:36:08;;;;;;;3.20;0.20;;;15.10;99.90;;;;;;5048013;28;20568;-60
2021/09/16 05:38:34;;;;;;;2.92;0.20;;;15.00;99.90;;;;;;5047481;28;20040;-63
2021/09/16 05:41:00;;;;;;;3.53;0.40;;;15.00;99.90;;;;;;5046823;28;20049;-60
2021/09/16 05:43:25;;;;;;;3.00;0.28;;;15.00;99.90;;;;;;5047324;28;20064;-62
2021/09/16 05:45:51;;;;;;;1.73;0.20;;;14.90;99.90;;;;;;5047259;28;20033;-64
2021/09/16 05:48:19;;;;;;;3.10;0.30;;;14.90;99.90;;;;;;5045631;28;20059;-62
2021/09/16 05:50:45;;;;;;;1.27;0.30;;;15.00;99.90;;;;;;5047498;28;20087;-59
2021/09/16 05:53:10;;;;;;;1.45;0.15;;;14.90;99.90;;;;;;5046743;28;20455;-61
2021/09/16 05:55:39;;;;;;;2.58;0.52;;;14.90;99.90;;;;;;5046968;28;20133;-64
2021/09/16 05:58:06;;;;;;;3.20;0.45;;;14.90;99.90;;;;;;5045479;28;20029;-61
2021/09/16 06:00:31;;;;;;;3.63;0.35;;;14.90;99.90;;;;;;5046571;28;20033;-62
2021/09/16 06:02:57;;;;;;;0.35;0.10;;;14.90;99.90;;;;;;5045776;28;20033;-61
2021/09/16 06:05:23;;;;;;;2.47;0.40;;;14.90;99.90;;;;;;5046650;28;20037;-61
2021/09/16 06:07:49;;;;;;;4.05;0.98;;;14.90;99.90;;;;;;5047111;28;20033;-60
2021/09/16 06:10:15;;;;;;;4.22;0.20;;;14.90;99.90;;;;;;5045841;28;20029;-61
2021/09/16 06:12:41;;;;;;;4.75;0.28;;;14.90;99.90;;;;;;5046929;28;20060;-61
2021/09/16 06:15:08;;;;;;;2.17;0.30;;;14.90;99.90;;;;;;5045527;28;20037;-60
2021/09/16 06:17:34;;;;;;;6.57;1.08;;;14.90;99.90;;;;;;5046567;28;20112;-61
2021/09/16 06:20:00;;;;;;;3.38;0.85;;;14.90;99.90;;;;;;5046124;28;20133;-64
2021/09/16 06:22:26;;;;;;;3.08;0.70;;;14.90;99.90;;;;;;5046720;28;20098;-62
2021/09/16 06:24:53;;;;;;;4.72;0.40;;;15.00;99.90;;;;;;5046604;28;20072;-61
2021/09/16 06:27:19;;;;;;;3.65;0.30;;;15.00;99.90;;;;;;5046160;28;20028;-62
2021/09/16 06:29:45;;;;;;;4.70;0.50;;;15.10;99.90;;;;;;5044350;28;20064;-61
2021/09/16 06:32:10;;;;;;;3.67;0.35;;;15.10;99.90;;;;;;5046045;28;20053;-62
2021/09/16 06:34:36;;;;;;;2.78;0.50;;;15.20;99.90;;;;;;5046227;28;20040;-65
2021/09/16 06:37:02;;;;;;;3.22;0.50;;;15.20;99.90;;;;;;5045829;28;20041;-60
2021/09/16 06:39:28;;;;;;;2.50;0.25;;;15.20;99.90;;;;;;5045574;28;20118;-60
2021/09/16 06:41:54;;;;;;;4.30;0.63;;;15.30;99.90;;;;;;5046657;28;20915;-60
2021/09/16 06:44:20;;;;;;;2.90;0.93;;;15.40;99.90;;;;;;5044280;28;20136;-60
2021/09/16 06:46:45;;;;;;;2.20;0.30;;;15.50;99.90;;;;;;5046445;28;20412;-60
2021/09/16 06:49:11;;;;;;;2.70;0.22;;;15.60;99.90;;;;;;5045179;28;20555;-61
2021/09/16 06:51:37;;;;;;;3.33;0.82;;;15.70;99.90;;;;;;5046221;28;20029;-62
2021/09/16 06:54:02;;;;;;;3.45;0.88;;;15.80;99.90;;;;;;5045576;28;20377;-61
2021/09/16 06:56:28;;;;;;;2.10;0.30;;;16.00;99.90;;;;;;5026972;28;20047;-61
2021/09/16 06:58:54;;;;;;;1.67;0.32;;;16.00;99.90;;;;;;5046093;28;20488;-60
2021/09/16 07:01:20;;;;;;;9.02;0.65;;;16.10;99.90;;;;;;5039856;28;20106;-61
2021/09/16 07:03:46;;;;;;;2.10;0.35;;;16.30;99.90;;;;;;5046057;28;20679;-60
2021/09/16 07:06:13;;;;;;;2.00;0.40;;;16.30;99.90;;;;;;5044986;28;20408;-61
2021/09/16 07:08:38;;;;;;;3.42;0.28;;;16.40;99.90;;;;;;5044412;28;20059;-65
2021/09/16 07:11:04;;;;;;;4.43;0.70;;;16.50;99.90;;;;;;5044332;28;20029;-61
2021/09/16 07:13:30;;;;;;;4.15;0.40;;;16.50;99.90;;;;;;5044713;28;20044;-63
2021/09/16 07:15:56;;;;;;;3.38;0.55;;;16.60;99.90;;;;;;5044763;28;20045;-61
2021/09/16 07:18:21;;;;;;;4.57;0.70;;;16.60;99.90;;;;;;5044356;28;20036;-62
2021/09/16 07:20:47;;;;;;;3.03;0.70;;;16.70;99.90;;;;;;5045494;28;20029;-61
2021/09/16 07:23:13;;;;;;;8.63;0.77;;;16.80;99.90;;;;;;5044620;28;20501;-61
2021/09/16 07:25:38;;;;;;;2.70;0.40;;;16.80;99.90;;;;;;5043792;28;20033;-60
2021/09/16 07:28:04;;;;;;;5.57;0.50;;;16.90;99.90;;;;;;5044781;28;20025;-60
2021/09/16 07:30:30;;;;;;;1.85;0.20;;;16.90;99.90;;;;;;5043146;28;20029;-61
2021/09/16 07:32:56;;;;;;;2.08;0.30;;;17.00;99.90;;;;;;5045556;28;20025;-61
2021/09/16 07:35:22;;;;;;;4.05;0.85;;;17.10;99.90;;;;;;5044452;28;20033;-63
2021/09/16 07:37:48;;;;;;;7.07;0.90;;;17.20;99.90;;;;;;5044934;28;20044;-63
2021/09/16 07:40:14;;;;;;;11.07;1.38;;;17.20;99.90;;;;;;5042703;28;20084;-62
2021/09/16 07:42:40;;;;;;;2.00;0.20;;;17.30;99.90;;;;;;5041798;28;20037;-61
2021/09/16 07:45:06;;;;;;;3.03;0.40;;;17.30;99.90;;;;;;5044936;28;20432;-60
2021/09/16 07:47:32;;;;;;;2.88;0.50;;;17.40;99.90;;;;;;5042855;28;20037;-62
2021/09/16 07:49:58;;;;;;;8.15;0.60;;;17.40;99.90;;;;;;5043425;28;20513;-60
2021/09/16 07:52:23;;;;;;;5.88;0.50;;;17.50;99.90;;;;;;5043943;28;20041;-61
2021/09/16 07:54:49;;;;;;;4.47;0.60;;;17.50;99.90;;;;;;5045124;28;20041;-60
2021/09/16 07:57:15;;;;;;;8.65;0.43;;;17.60;99.90;;;;;;5044704;28;20033;-61
2021/09/16 07:59:40;;;;;;;4.40;0.50;;;17.60;99.90;;;;;;5044529;28;20033;-62
2021/09/16 08:02:06;;;;;;;2.55;0.50;;;17.70;99.90;;;;;;5042936;28;20044;-63
2021/09/16 08:04:32;;;;;;;7.70;0.47;;;17.80;99.90;;;;;;5044141;28;20037;-60
2021/09/16 08:06:57;;;;;;;1.98;0.32;;;17.90;99.90;;;;;;5043198;28;20595;-60
2021/09/16 08:09:24;;;;;;;4.85;0.45;;;18.10;99.90;;;;;;5047129;28;20045;-62
2021/09/16 08:11:50;;;;;;;1.95;0.40;;;18.10;99.90;;;;;;5048556;28;20048;-60
2021/09/16 08:14:15;;;;;;;2.83;0.47;;;18.20;99.90;;;;;;5046199;28;20479;-61
2021/09/16 08:16:41;;;;;;;0.85;0.35;;;18.10;99.90;;;;;;5035553;28;20521;-60
2021/09/16 08:19:07;;;;;;;2.90;0.52;;;18.20;99.90;;;;;;5026532;28;20781;-61
2021/09/16 08:21:33;;;;;;;1.65;0.30;;;18.20;99.90;;;;;;5027539;28;20124;-61
2021/09/16 08:23:59;;;;;;;1.05;0.55;;;18.40;99.90;;;;;;5028245;28;20492;-61
2021/09/16 08:26:25;;;;;;;3.38;0.40;;;18.50;99.90;;;;;;5027330;28;20065;-62
2021/09/16 08:28:51;;;;;;;4.28;0.60;;;18.50;99.90;;;;;;5036245;28;20081;-60
2021/09/16 08:31:17;;;;;;;2.20;0.38;;;18.50;99.90;;;;;;5035156;28;20116;-60
2021/09/16 08:33:42;;;;;;;10.57;0.50;;;18.60;99.90;;;;;;5047694;28;20270;-60
2021/09/16 08:36:10;;;;;;;2.17;0.20;;;18.70;99.90;;;;;;5046859;28;20025;-60
2021/09/16 08:38:36;;;;;;;2.60;0.28;;;18.70;99.90;;;;;;5046904;28;20026;-65
2021/09/16 08:41:04;;;;;;;2.50;0.38;;;18.80;99.90;;;;;;5047947;28;20112;-59
2021/09/16 08:43:31;;;;;;;2.55;0.60;;;18.80;99.90;;;;;;5047132;28;20397;-61
2021/09/16 08:45:59;;;;;;;2.38;0.45;;;18.80;99.90;;;;;;5047815;28;20025;-60
2021/09/16 08:48:24;;;;;;;1.95;0.40;;;18.80;99.90;;;;;;5046828;28;20084;-59
2021/09/16 08:50:51;;;;;;;2.90;0.20;;;18.80;99.90;;;;;;5046825;28;20057;-61
2021/09/16 08:53:24;;;;;;;2.78;0.50;;;18.80;99.90;;;;;;5047873;28;20024;-60
2021/09/16 08:55:52;;;;;;;1.75;0.30;;;18.90;99.90;;;;;;5046953;28;20052;-60
2021/09/16 08:58:22;;;;;;;3.20;0.45;;;18.90;99.90;;;;;;5047001;28;20500;-60
2021/09/16 09:00:48;;;;;;;2.45;0.40;;;19.10;99.90;;;;;;5047338;28;20404;-61
2021/09/16 09:03:14;;;;;;;1.60;0.25;;;19.30;99.90;;;;;;5047073;28;20029;-60
2021/09/16 09:05:43;;;;;;;2.58;0.63;;;19.50;99.90;;;;;;5046835;28;20548;-63
2021/09/16 09:08:10;;;;;;;1.90;0.40;;;19.60;99.90;;;;;;5056150;22;20028;-68
2021/09/16 09:10:40;;;;;;;2.15;0.40;;;19.60;99.90;;;;;;5043172;28;20514;-67
2021/09/16 09:13:12;;;;;;;2.22;0.30;;;19.60;99.90;;;;;;5043816;28;20036;-69
2021/09/16 09:15:40;;;;;;;1.90;0.20;;;19.70;99.90;;;;;;5046180;28;20161;-68
2021/09/16 09:18:11;;;;;;;3.30;0.10;;;19.70;99.90;;;;;;5042350;28;20503;-68
2021/09/16 09:21:04;;;;;;;3.95;0.38;;;19.60;99.90;;;;;;5025394;28;20489;-67
2021/09/16 09:23:34;;;;;;;1.05;0.10;;;19.60;99.90;;;;;;5024071;28;20037;-68
2021/09/16 09:26:21;;;;;;;6.38;0.52;;;19.70;99.90;;;;;;5027263;28;20404;-68
2021/09/16 09:28:47;;;;;;;1.13;0.20;;;19.70;99.90;;;;;;5024625;28;20079;-68
2021/09/16 09:31:19;;;;;;;1.73;0.28;;;19.70;99.90;;;;;;5028096;28;20033;-68
2021/09/16 09:33:45;;;;;;;1.88;0.40;;;19.70;99.90;;;;;;5027711;28;20392;-68
2021/09/16 09:36:18;;;;;;;1.75;0.20;;;19.60;99.90;;;;;;5028209;28;20029;-67
2021/09/16 09:39:02;;;;;;;1.35;0.50;;;19.60;99.90;;;;;;5023224;28;20037;-68
2021/09/16 09:41:36;;;;;;;1.48;0.20;;;19.60;99.90;;;;;;5025764;28;20067;-68
2021/09/16 09:44:13;;;;;;;0.93;0.20;;;19.80;99.90;;;;;;5027194;28;20117;-68
2021/09/16 09:46:39;;;;;;;1.60;0.35;;;19.90;99.90;;;;;;5024264;28;20392;-69
2021/09/16 09:49:09;;;;;;;1.58;0.20;;;19.80;99.90;;;;;;5027105;28;20492;-67
2021/09/16 09:51:39;;;;;;;0.90;0.40;;;19.80;99.90;;;;;;5026595;28;20072;-67
2021/09/16 09:54:38;;;;;;;1.13;0.45;;;19.70;99.90;;;;;;5025477;28;20508;-67
2021/09/16 09:57:19;;;;;;;2.60;0.25;;;19.60;99.90;;;;;;5026092;28;20064;-67
2021/09/16 09:59:55;;;;;;;1.55;0.20;;;19.60;99.90;;;;;;5025280;28;20033;-67
2021/09/16 10:02:27;;;;;;;0.70;0.20;;;19.70;99.90;;;;;;5025950;28;20045;-67
2021/09/16 10:04:53;;;;;;;1.33;0.17;;;19.70;99.90;;;;;;5028396;28;20107;-67
2021/09/16 10:07:37;;;;;;;0.88;0.30;;;19.90;99.90;;;;;;5030220;28;20079;-67
2021/09/16 10:10:09;;;;;;;0.70;0.20;;;20.00;99.90;;;;;;5033649;28;20045;-67
2021/09/16 10:12:35;;;;;;;0.50;0.10;;;20.00;99.90;;;;;;5027735;28;20230;-66
2021/09/16 10:15:01;;;;;;;0.80;0.30;;;20.00;99.90;;;;;;5027285;28;20132;-67
2021/09/16 10:17:27;;;;;;;1.90;0.25;;;19.90;99.90;;;;;;5026513;28;20044;-70
2021/09/16 10:19:53;;;;;;;3.72;0.35;;;19.80;99.90;;;;;;5025249;28;20053;-67
2021/09/16 10:22:19;;;;;;;1.65;0.22;;;19.90;99.90;;;;;;5026288;28;20037;-69
2021/09/16 10:24:46;;;;;;;2.25;0.20;;;20.10;99.90;;;;;;5028022;28;20481;-68
2021/09/16 10:27:36;;;;;;;1.15;0.25;;;20.20;99.90;;;;;;5029239;28;20056;-69
2021/09/16 10:30:21;;;;;;;0.90;0.20;;;20.30;99.90;;;;;;5024924;28;20136;-70
2021/09/16 10:32:57;;;;;;;2.58;0.30;;;20.30;99.90;;;;;;5023439;28;20088;-68
2021/09/16 10:35:23;;;;;;;0.90;0.28;;;20.40;99.90;;;;;;5025035;28;20038;-69
2021/09/16 10:37:49;;;;;;;1.88;0.20;;;20.40;99.90;;;;;;5029197;28;20404;-69
2021/09/16 10:40:20;;;;;;;0.93;0.15;;;20.30;99.90;;;;;;5030816;28;20032;-69
2021/09/16 10:42:53;;;;;;;2.28;0.55;;;20.30;99.90;;;;;;5033817;28;20041;-69
2021/09/16 10:45:32;;;;;;;1.15;0.20;;;20.40;99.90;;;;;;5030578;28;20638;-69
2021/09/16 10:48:13;;;;;;;1.67;0.30;;;20.40;99.90;;;;;;5028306;28;20033;-69
2021/09/16 10:50:46;;;;;;;2.88;0.32;;;20.40;99.90;;;;;;5024080;28;20341;-69
2021/09/16 10:53:37;;;;;;;1.58;0.63;;;20.70;99.90;;;;;;5024230;28;20083;-70
2021/09/16 10:56:39;;;;;;;0.40;0.20;;;20.70;99.90;;;;;;5024506;28;20029;-69
2021/09/16 10:59:06;;;;;;;2.67;0.20;;;20.70;99.90;;;;;;5021531;28;20049;-68
2021/09/16 11:01:50;;;;;;;1.40;0.30;;;20.70;99.90;;;;;;5024790;28;20065;-70
2021/09/16 11:04:16;;;;;;;1.60;0.30;;;20.80;99.90;;;;;;5025098;28;20068;-69
2021/09/16 11:06:43;;;;;;;1.67;0.28;;;20.90;99.90;;;;;;5023745;28;20360;-69
2021/09/16 11:09:09;;;;;;;3.17;0.22;;;21.20;99.90;;;;;;5024745;28;20057;-69
2021/09/16 11:11:50;;;;;;;3.40;0.43;;;21.40;99.90;;;;;;5024807;28;20091;-68
2021/09/16 11:14:28;;;;;;;1.20;0.20;;;21.70;99.90;;;;;;5022274;28;20033;-70
2021/09/16 11:16:55;;;;;;;0.80;0.30;;;21.80;99.90;;;;;;5022013;28;20048;-69
2021/09/16 11:19:21;;;;;;;2.67;0.43;;;21.90;99.90;;;;;;5025042;28;20359;-70
2021/09/16 11:22:08;;;;;;;2.13;0.35;;;21.90;99.90;;;;;;5025334;28;20038;-69
2021/09/16 11:24:42;;;;;;;2.72;0.40;;;21.80;99.90;;;;;;5023555;28;20033;-69
2021/09/16 11:27:10;;;;;;;1.52;0.40;;;21.60;99.90;;;;;;5025097;28;20033;-69
2021/09/16 11:29:46;;;;;;;2.40;0.32;;;21.60;99.90;;;;;;5024782;28;20038;-69
2021/09/16 11:32:15;;;;;;;2.05;0.30;;;21.40;99.90;;;;;;5023101;28;20044;-69
2021/09/16 11:34:59;;;;;;;1.40;0.52;;;21.30;99.90;;;;;;5025062;28;20030;-69
2021/09/16 11:37:32;;;;;;;1.15;0.40;;;21.00;99.90;;;;;;5022781;28;20037;-68
2021/09/16 11:40:25;;;;;;;2.00;0.75;;;20.90;99.90;;;;;;5022840;28;20123;-69
2021/09/16 11:42:53;;;;;;;2.42;0.57;;;20.90;99.90;;;;;;5026623;28;20091;-69
2021/09/16 11:45:18;;;;;;;1.85;0.40;;;21.10;99.90;;;;;;5029054;28;20120;-68
2021/09/16 11:47:46;;;;;;;2.13;0.30;;;21.30;99.90;;;;;;5027900;28;20124;-68
2021/09/16 11:50:28;;;;;;;1.42;0.30;;;21.50;99.90;;;;;;5028697;28;20025;-68
2021/09/16 11:53:04;;;;;;;2.60;0.30;;;21.70;99.90;;;;;;5027716;28;20045;-69
2021/09/16 11:55:38;;;;;;;1.40;0.30;;;21.80;99.90;;;;;;5026517;28;20471;-69
2021/09/16 11:58:15;;;;;;;2.42;0.85;;;21.90;99.90;;;;;;5026290;28;20049;-69
2021/09/16 12:00:51;;;;;;;1.38;0.40;;;21.80;99.90;;;;;;5024907;28;20025;-69
2021/09/16 12:03:53;;;;;;;4.57;0.68;;;21.40;99.90;;;;;;5028098;28;20332;-69
2021/09/16 12:06:19;;;;;;;0.88;0.50;;;21.10;99.90;;;;;;5025856;28;20037;-68
2021/09/16 12:08:47;;;;;;;3.78;0.50;;;20.90;99.90;;;;;;5027588;28;20060;-68
2021/09/16 12:11:16;;;;;;;1.90;0.40;;;20.70;99.90;;;;;;5027879;28;20030;-67
2021/09/16 12:13:52;;;;;;;1.67;0.50;;;20.70;99.90;;;;;;5027164;28;20467;-68
2021/09/16 12:16:21;;;;;;;2.90;0.60;;;20.80;99.90;;;;;;5027065;28;20040;-68
2021/09/16 12:18:56;;;;;;;2.50;0.70;;;20.80;99.90;;;;;;5028068;28;20037;-69
2021/09/16 12:21:39;;;;;;;3.08;0.80;;;20.80;99.90;;;;;;5027751;28;20033;-69
2021/09/16 12:24:12;;;;;;;2.35;0.50;;;20.80;99.90;;;;;;5025255;28;20046;-69
2021/09/16 12:26:43;;;;;;;3.20;0.88;;;20.90;99.90;;;;;;5026885;28;20159;-69
2021/09/16 12:29:25;;;;;;;1.20;0.55;;;21.00;99.90;;;;;;5027443;28;20041;-69
2021/09/16 12:32:06;;;;;;;2.65;0.57;;;21.10;99.90;;;;;;5026618;28;20025;-69
2021/09/16 12:34:34;;;;;;;0.63;0.38;;;21.10;99.90;;;;;;5026826;28;20041;-69
2021/09/16 12:37:11;;;;;;;1.20;0.30;;;21.10;99.90;;;;;;5027956;28;20064;-69
2021/09/16 12:39:48;;;;;;;1.35;0.30;;;21.10;99.90;;;;;;5027124;28;20469;-69
2021/09/16 12:42:42;;;;;;;2.83;0.65;;;21.10;99.90;;;;;;5027136;28;20083;-70
2021/09/16 12:45:09;;;;;;;1.23;0.60;;;21.20;99.90;;;;;;5026271;28;20029;-69
2021/09/16 12:47:45;;;;;;;1.60;0.60;;;21.10;99.90;;;;;;5027732;28;20384;-69
2021/09/16 12:50:11;;;;;;;5.20;0.80;;;20.90;99.90;;;;;;5026358;28;20048;-68
2021/09/16 12:52:36;;;;;;;2.42;0.77;;;20.80;99.90;;;;;;5026709;28;20069;-69